createdAt,value
2023-03-22T00:02:26.618Z,5.30
2023-03-22T00:04:54.161Z,5.57
2023-03-22T00:07:21.603Z,5.13
2023-03-22T00:09:49.032Z,5.23
2023-03-22T00:12:16.518Z,4.73
2023-03-22T00:14:45.348Z,5.03
2023-03-22T00:17:12.721Z,4.73
2023-03-22T00:19:42.123Z,5.27
2023-03-22T00:22:11.381Z,3.97
2023-03-22T00:24:38.812Z,4.37
2023-03-22T00:27:06.207Z,6.00
2023-03-22T00:29:33.564Z,4.20
2023-03-22T00:32:02.689Z,4.50
2023-03-22T00:34:31.464Z,4.13
2023-03-22T00:36:58.862Z,4.13
2023-03-22T00:39:26.890Z,4.90
2023-03-22T00:41:54.275Z,4.40
2023-03-22T00:44:21.672Z,4.17
2023-03-22T00:46:49.077Z,4.50
2023-03-22T00:49:18.806Z,4.57
2023-03-22T00:51:46.599Z,4.67
2023-03-22T00:54:14.143Z,4.60
2023-03-22T00:56:45.393Z,4.50
2023-03-22T00:59:14.560Z,4.77
2023-03-22T01:01:43.534Z,4.50
2023-03-22T01:04:17.852Z,4.77
2023-03-22T01:06:47.379Z,4.73
2023-03-22T01:09:15.328Z,5.30
2023-03-22T01:11:43.178Z,5.00
2023-03-22T01:14:13.663Z,4.80
2023-03-22T01:16:41.141Z,4.63
2023-03-22T01:19:09.169Z,4.70
2023-03-22T01:21:36.774Z,4.83
2023-03-22T01:24:05.923Z,4.80
2023-03-22T01:26:33.352Z,4.50
2023-03-22T01:29:00.819Z,4.80
2023-03-22T01:31:28.213Z,4.37
2023-03-22T01:33:55.680Z,4.27
2023-03-22T01:36:23.849Z,4.03
2023-03-22T01:38:51.336Z,4.20
2023-03-22T01:41:21.078Z,3.80
2023-03-22T01:44:03.629Z,4.13
2023-03-22T01:46:33.034Z,3.80
2023-03-22T01:49:01.531Z,3.77
2023-03-22T01:51:29.576Z,3.53
2023-03-22T01:54:29.611Z,3.40
2023-03-22T01:56:59.443Z,3.93
2023-03-22T01:59:36.474Z,3.70
2023-03-22T02:02:19.422Z,4.23
2023-03-22T02:04:57.818Z,3.27
2023-03-22T02:07:27.526Z,4.10
2023-03-22T02:09:56.797Z,4.23
2023-03-22T02:12:32.739Z,3.70
2023-03-22T02:15:09.559Z,3.80
2023-03-22T02:18:06.477Z,4.27
2023-03-22T02:20:55.104Z,4.87
2023-03-22T02:23:41.710Z,3.30
2023-03-22T02:26:27.005Z,3.50
2023-03-22T02:28:59.827Z,5.70
2023-03-22T02:31:42.218Z,3.30
2023-03-22T02:34:15.607Z,4.00
2023-03-22T02:37:04.047Z,3.77
2023-03-22T02:39:40.315Z,3.57
2023-03-22T02:42:11.717Z,3.90
2023-03-22T02:44:41.904Z,3.97
2023-03-22T02:47:11.625Z,3.53
2023-03-22T02:49:41.913Z,4.40
2023-03-22T02:52:12.475Z,3.67
2023-03-22T02:54:44.845Z,3.53
2023-03-22T02:57:14.525Z,3.63
2023-03-22T02:59:42.944Z,3.50
2023-03-22T03:02:11.651Z,3.60
2023-03-22T03:04:41.903Z,4.00
2023-03-22T03:07:10.432Z,4.70
2023-03-22T03:09:39.147Z,3.77
2023-03-22T03:12:14.493Z,3.77
2023-03-22T03:14:42.041Z,3.57
2023-03-22T03:17:14.036Z,3.67
2023-03-22T03:19:44.501Z,3.97
2023-03-22T03:22:18.824Z,3.40
2023-03-22T03:24:49.369Z,4.00
2023-03-22T03:27:20.556Z,3.53
2023-03-22T03:29:50.267Z,4.00
2023-03-22T03:32:20.238Z,4.03
2023-03-22T03:34:51.310Z,3.47
2023-03-22T03:37:20.872Z,6.10
2023-03-22T03:39:53.023Z,3.97
2023-03-22T03:42:23.558Z,3.93
2023-03-22T03:44:50.956Z,3.63
2023-03-22T03:47:19.014Z,3.80
2023-03-22T03:49:46.433Z,3.40
2023-03-22T03:52:14.289Z,4.17
2023-03-22T03:54:42.646Z,3.50
2023-03-22T03:57:16.522Z,3.33
2023-03-22T03:59:45.305Z,3.87
2023-03-22T04:02:23.507Z,3.30
2023-03-22T04:04:53.551Z,3.90
2023-03-22T04:07:21.445Z,3.80
2023-03-22T04:09:48.961Z,3.60
2023-03-22T04:12:22.433Z,3.53
2023-03-22T04:15:12.729Z,3.63
2023-03-22T04:17:41.741Z,3.77
2023-03-22T04:20:12.350Z,3.80
2023-03-22T04:22:41.445Z,3.57
2023-03-22T04:25:11.777Z,3.63
2023-03-22T04:27:42.719Z,3.57
2023-03-22T04:30:18.714Z,3.90
2023-03-22T04:33:01.587Z,6.40
2023-03-22T04:35:47.137Z,4.70
2023-03-22T04:38:15.421Z,4.87
2023-03-22T04:40:46.474Z,5.63
2023-03-22T04:43:20.998Z,4.83
2023-03-22T04:45:58.280Z,4.17
2023-03-22T04:48:31.507Z,4.50
2023-03-22T04:51:03.962Z,5.00
2023-03-22T04:53:38.788Z,4.30
2023-03-22T04:56:08.462Z,4.40
2023-03-22T04:58:36.911Z,4.67
2023-03-22T05:01:05.899Z,4.50
2023-03-22T05:03:33.348Z,4.57
2023-03-22T05:06:03.242Z,4.30
2023-03-22T05:08:42.155Z,4.13
2023-03-22T05:11:10.605Z,3.93
2023-03-22T05:13:38.502Z,4.63
2023-03-22T05:16:08.187Z,4.77
2023-03-22T05:18:45.506Z,4.50
2023-03-22T05:21:15.312Z,4.70
2023-03-22T05:23:44.237Z,4.50
2023-03-22T05:26:15.503Z,4.80
2023-03-22T05:28:44.316Z,5.10
2023-03-22T05:31:21.610Z,4.83
2023-03-22T05:33:57.212Z,5.00
2023-03-22T05:36:29.534Z,5.93
2023-03-22T05:39:17.445Z,5.33
2023-03-22T05:41:45.620Z,5.40
2023-03-22T05:44:13.476Z,5.73
2023-03-22T05:46:50.945Z,5.07
2023-03-22T05:49:28.073Z,5.10
2023-03-22T05:51:55.894Z,5.50
2023-03-22T05:54:26.453Z,5.00
2023-03-22T05:56:55.718Z,5.13
2023-03-22T05:59:24.002Z,5.47
2023-03-22T06:01:52.900Z,5.43
2023-03-22T06:04:23.748Z,5.53
2023-03-22T06:06:57.518Z,5.77
2023-03-22T06:10:03.945Z,5.63
2023-03-22T06:12:32.504Z,4.93
2023-03-22T06:15:07.367Z,4.60
2023-03-22T06:17:58.560Z,5.17
2023-03-22T06:20:28.752Z,5.50
2023-03-22T06:23:01.691Z,5.10
2023-03-22T06:25:29.096Z,6.40
2023-03-22T06:27:56.988Z,5.17
2023-03-22T06:30:25.198Z,5.40
2023-03-22T06:33:14.232Z,5.23
2023-03-22T06:35:44.974Z,5.60
2023-03-22T06:38:17.847Z,5.00
2023-03-22T06:40:45.648Z,5.40
2023-03-22T06:43:13.115Z,6.90
2023-03-22T06:45:44.322Z,5.40
2023-03-22T06:48:11.831Z,7.70
2023-03-22T06:50:50.815Z,6.77
2023-03-22T06:53:23.798Z,7.10
2023-03-22T06:55:53.697Z,6.83
2023-03-22T06:58:24.466Z,6.63
2023-03-22T07:00:52.040Z,6.40
2023-03-22T07:03:21.619Z,6.63
2023-03-22T07:06:03.182Z,8.37
2023-03-22T07:08:32.946Z,7.10
2023-03-22T07:11:00.439Z,7.77
2023-03-22T07:13:29.462Z,6.53
2023-03-22T07:16:02.329Z,6.00
2023-03-22T07:18:39.895Z,6.03
2023-03-22T07:21:08.915Z,6.20
2023-03-22T07:23:38.735Z,6.80
2023-03-22T07:26:10.539Z,5.70
2023-03-22T07:28:44.389Z,7.03
2023-03-22T07:31:14.381Z,8.10
2023-03-22T07:33:54.159Z,5.70
2023-03-22T07:36:25.721Z,7.63
2023-03-22T07:38:54.306Z,5.73
2023-03-22T07:41:34.828Z,5.33
2023-03-22T07:44:40.161Z,5.00
2023-03-22T07:47:20.304Z,5.10
2023-03-22T07:50:11.762Z,5.33
2023-03-22T07:52:40.729Z,4.77
2023-03-22T07:55:09.708Z,5.20
2023-03-22T07:57:37.311Z,5.13
2023-03-22T08:00:05.956Z,7.33
2023-03-22T08:02:54.589Z,6.87
2023-03-22T08:05:46.177Z,5.00
2023-03-22T08:08:17.971Z,5.77
2023-03-22T08:10:49.496Z,4.90
2023-03-22T08:13:17.040Z,4.83
2023-03-22T08:15:44.657Z,4.63
2023-03-22T08:18:12.452Z,5.40
2023-03-22T08:20:41.236Z,5.43
2023-03-22T08:23:16.092Z,6.83
2023-03-22T08:26:03.874Z,7.47
2023-03-22T08:28:33.800Z,8.10
2023-03-22T08:31:01.514Z,9.27
2023-03-22T08:33:29.041Z,8.00
2023-03-22T08:36:05.237Z,7.87
2023-03-22T08:38:32.915Z,6.00
2023-03-22T08:41:00.603Z,5.17
2023-03-22T08:43:29.424Z,6.10
2023-03-22T08:45:56.947Z,6.50
2023-03-22T08:48:27.987Z,7.10
2023-03-22T08:51:10.840Z,7.07
2023-03-22T08:53:52.840Z,7.23
2023-03-22T08:56:41.696Z,7.40
2023-03-22T08:59:20.530Z,7.60
2023-03-22T09:01:58.559Z,7.23
2023-03-22T09:04:27.188Z,7.33
2023-03-22T09:06:54.703Z,6.67
2023-03-22T09:09:22.132Z,6.40
2023-03-22T09:11:52.715Z,6.53
2023-03-22T09:14:21.441Z,6.47
2023-03-22T09:16:49.544Z,8.07
2023-03-22T09:19:17.125Z,5.80
2023-03-22T09:21:45.483Z,5.60
2023-03-22T09:24:20.681Z,7.37
2023-03-22T09:26:53.188Z,6.07
2023-03-22T09:29:22.061Z,5.40
2023-03-22T09:31:49.679Z,7.87
2023-03-22T09:34:21.886Z,5.57
2023-03-22T09:36:49.722Z,5.43
2023-03-22T09:39:22.417Z,5.93
2023-03-22T09:41:55.784Z,5.90
2023-03-22T09:44:28.081Z,5.70
2023-03-22T09:46:56.628Z,5.77
2023-03-22T09:49:26.042Z,5.83
2023-03-22T09:51:54.259Z,5.80
2023-03-22T09:54:27.221Z,5.80
2023-03-22T09:56:56.828Z,4.83
2023-03-22T09:59:28.866Z,4.80
2023-03-22T10:01:58.330Z,5.60
2023-03-22T10:04:39.739Z,5.13
2023-03-22T10:07:11.088Z,5.30
2023-03-22T10:09:44.148Z,3.13
2023-03-22T10:12:16.369Z,3.43
2023-03-22T10:14:47.082Z,3.60
2023-03-22T10:17:17.146Z,4.07
2023-03-22T10:19:48.065Z,3.80
2023-03-22T10:22:17.551Z,3.40
2023-03-22T10:24:46.598Z,3.30
2023-03-22T10:27:16.527Z,3.67
2023-03-22T10:29:48.020Z,3.70
2023-03-22T10:32:16.404Z,3.00
2023-03-22T10:34:44.357Z,2.70
2023-03-22T10:37:15.349Z,2.60
2023-03-22T10:39:43.998Z,3.37
2023-03-22T10:42:13.890Z,2.10
2023-03-22T10:44:47.979Z,2.73
2023-03-22T10:47:18.196Z,4.47
2023-03-22T10:49:48.195Z,3.50
2023-03-22T10:52:22.272Z,3.10
2023-03-22T10:54:49.749Z,3.87
2023-03-22T10:57:17.239Z,3.53
2023-03-22T10:59:48.414Z,3.97
2023-03-22T11:02:23.960Z,2.63
2023-03-22T11:04:52.416Z,2.50
2023-03-22T11:07:28.825Z,2.60
2023-03-22T11:10:00.364Z,2.30
2023-03-22T11:12:28.049Z,2.83
2023-03-22T11:14:56.969Z,2.63
2023-03-22T11:17:26.760Z,3.17
2023-03-22T11:19:56.036Z,2.60
2023-03-22T11:22:26.580Z,2.50
2023-03-22T11:24:56.565Z,1.97
2023-03-22T11:27:25.131Z,2.07
2023-03-22T11:29:53.387Z,1.57
2023-03-22T11:32:22.774Z,1.60
2023-03-22T11:34:59.454Z,1.50
2023-03-22T11:37:26.821Z,1.80
2023-03-22T11:39:59.837Z,1.70
2023-03-22T11:42:27.349Z,1.63
2023-03-22T11:44:56.434Z,1.80
2023-03-22T11:47:26.115Z,1.93
2023-03-22T11:49:57.058Z,2.27
2023-03-22T11:52:25.878Z,1.90
2023-03-22T11:54:54.028Z,1.80
2023-03-22T11:57:22.456Z,1.70
2023-03-22T11:59:54.762Z,2.00
2023-03-22T12:02:24.725Z,1.80
2023-03-22T12:04:53.701Z,1.80
2023-03-22T12:07:24.435Z,2.00
2023-03-22T12:09:53.723Z,1.90
2023-03-22T12:12:23.021Z,1.90
2023-03-22T12:14:52.370Z,1.97
2023-03-22T12:17:24.407Z,1.70
2023-03-22T12:19:55.192Z,1.93
2023-03-22T12:22:26.082Z,2.07
2023-03-22T12:24:53.529Z,2.20
2023-03-22T12:27:22.942Z,1.97
2023-03-22T12:29:53.025Z,1.93
2023-03-22T12:32:22.636Z,1.97
2023-03-22T12:34:55.108Z,1.83
2023-03-22T12:37:32.561Z,2.87
2023-03-22T12:40:01.961Z,4.63
2023-03-22T12:42:35.045Z,2.10
2023-03-22T12:45:07.809Z,2.30
2023-03-22T12:47:37.250Z,2.00
2023-03-22T12:50:06.776Z,1.90
2023-03-22T12:52:45.136Z,1.83
2023-03-22T12:55:18.622Z,1.53
2023-03-22T12:57:51.152Z,1.70
2023-03-22T13:00:19.535Z,1.43
2023-03-22T13:02:49.966Z,6.93
2023-03-22T13:05:18.368Z,1.60
2023-03-22T13:07:54.265Z,4.13
2023-03-22T13:10:41.559Z,3.97
2023-03-22T13:13:15.442Z,1.70
2023-03-22T13:15:57.524Z,2.30
2023-03-22T13:18:32.698Z,1.60
2023-03-22T13:21:11.321Z,1.93
2023-03-22T13:23:53.192Z,1.40
2023-03-22T13:26:21.545Z,1.50
2023-03-22T13:28:55.678Z,1.83
2023-03-22T13:31:32.376Z,1.50
2023-03-22T13:34:02.557Z,2.27
2023-03-22T13:36:31.959Z,1.90
2023-03-22T13:39:02.960Z,1.53
2023-03-22T13:41:31.317Z,2.17
2023-03-22T13:43:59.860Z,1.83
2023-03-22T13:46:28.761Z,1.50
2023-03-22T13:49:11.168Z,1.67
2023-03-22T13:51:38.683Z,2.67
2023-03-22T13:54:10.071Z,1.30
2023-03-22T13:56:54.150Z,1.20
2023-03-22T13:59:24.073Z,1.37
2023-03-22T14:01:53.048Z,1.37
2023-03-22T14:04:29.892Z,2.60
2023-03-22T14:06:59.819Z,1.40
2023-03-22T14:09:30.741Z,1.30
2023-03-22T14:12:01.534Z,1.30
2023-03-22T14:14:30.748Z,1.50
2023-03-22T14:17:01.006Z,1.33
2023-03-22T14:19:31.605Z,3.17
